sensor_id;sensor_type;location;lat;lon;timestamp;temperature;humidity
57552;DHT22;43379;48.160;14.036;2023-07-02T00:00:59;21.20;98.40
57552;DHT22;43379;48.160;14.036;2023-07-02T00:03:24;21.10;98.50
57552;DHT22;43379;48.160;14.036;2023-07-02T00:05:50;21.10;98.60
57552;DHT22;43379;48.160;14.036;2023-07-02T00:08:20;21.10;98.60
57552;DHT22;43379;48.160;14.036;2023-07-02T00:10:46;21.10;98.70
57552;DHT22;43379;48.160;14.036;2023-07-02T00:13:12;21.10;98.80
57552;DHT22;43379;48.160;14.036;2023-07-02T00:15:38;21.10;98.80
57552;DHT22;43379;48.160;14.036;2023-07-02T00:18:04;21.10;98.90
57552;DHT22;43379;48.160;14.036;2023-07-02T00:20:29;21.10;98.90
57552;DHT22;43379;48.160;14.036;2023-07-02T00:22:55;21.10;99.00
57552;DHT22;43379;48.160;14.036;2023-07-02T00:25:21;21.00;99.00
57552;DHT22;43379;48.160;14.036;2023-07-02T00:27:47;21.10;99.00
57552;DHT22;43379;48.160;14.036;2023-07-02T00:30:13;21.00;99.10
57552;DHT22;43379;48.160;14.036;2023-07-02T00:32:39;21.00;99.10
57552;DHT22;43379;48.160;14.036;2023-07-02T00:35:05;21.10;99.20
57552;DHT22;43379;48.160;14.036;2023-07-02T00:37:31;21.10;99.50
57552;DHT22;43379;48.160;14.036;2023-07-02T00:39:57;21.10;99.20
57552;DHT22;43379;48.160;14.036;2023-07-02T00:42:22;21.10;99.20
57552;DHT22;43379;48.160;14.036;2023-07-02T00:44:49;21.10;99.20
57552;DHT22;43379;48.160;14.036;2023-07-02T00:47:16;21.10;99.20
57552;DHT22;43379;48.160;14.036;2023-07-02T00:49:42;21.10;99.30
57552;DHT22;43379;48.160;14.036;2023-07-02T00:52:07;21.10;99.30
57552;DHT22;43379;48.160;14.036;2023-07-02T00:54:33;21.10;99.30
57552;DHT22;43379;48.160;14.036;2023-07-02T00:56:59;21.10;99.40
57552;DHT22;43379;48.160;14.036;2023-07-02T00:59:30;21.10;99.40
57552;DHT22;43379;48.160;14.036;2023-07-02T01:01:56;21.10;99.40
57552;DHT22;43379;48.160;14.036;2023-07-02T01:04:22;21.10;99.40
57552;DHT22;43379;48.160;14.036;2023-07-02T01:06:53;21.20;99.20
57552;DHT22;43379;48.160;14.036;2023-07-02T01:09:23;21.20;99.10
57552;DHT22;43379;48.160;14.036;2023-07-02T01:11:53;21.20;99.00
57552;DHT22;43379;48.160;14.036;2023-07-02T01:14:39;21.30;98.90
57552;DHT22;43379;48.160;14.036;2023-07-02T01:17:06;21.30;98.90
57552;DHT22;43379;48.160;14.036;2023-07-02T01:19:51;21.30;99.60
57552;DHT22;43379;48.160;14.036;2023-07-02T01:22:19;21.30;99.60
57552;DHT22;43379;48.160;14.036;2023-07-02T01:24:45;21.30;99.90
57552;DHT22;43379;48.160;14.036;2023-07-02T01:27:15;21.40;99.90
57552;DHT22;43379;48.160;14.036;2023-07-02T01:29:41;21.30;99.90
57552;DHT22;43379;48.160;14.036;2023-07-02T01:32:08;21.20;99.90
57552;DHT22;43379;48.160;14.036;2023-07-02T01:34:34;21.10;99.90
57552;DHT22;43379;48.160;14.036;2023-07-02T01:37:01;21.10;99.90
57552;DHT22;43379;48.160;14.036;2023-07-02T01:39:26;21.10;99.90
57552;DHT22;43379;48.160;14.036;2023-07-02T01:42:15;21.00;99.90
57552;DHT22;43379;48.160;14.036;2023-07-02T01:44:43;21.00;99.90
57552;DHT22;43379;48.160;14.036;2023-07-02T01:47:10;20.90;99.90
57552;DHT22;43379;48.160;14.036;2023-07-02T01:49:35;21.00;99.90
57552;DHT22;43379;48.160;14.036;2023-07-02T01:52:05;21.00;99.90
57552;DHT22;43379;48.160;14.036;2023-07-02T01:54:32;20.90;99.90
57552;DHT22;43379;48.160;14.036;2023-07-02T01:56:58;20.90;99.90
57552;DHT22;43379;48.160;14.036;2023-07-02T01:59:24;20.90;99.90
57552;DHT22;43379;48.160;14.036;2023-07-02T02:01:50;20.80;99.90
57552;DHT22;43379;48.160;14.036;2023-07-02T02:04:16;20.80;99.90
57552;DHT22;43379;48.160;14.036;2023-07-02T02:06:42;20.80;99.90
57552;DHT22;43379;48.160;14.036;2023-07-02T02:09:08;20.80;99.90
57552;DHT22;43379;48.160;14.036;2023-07-02T02:11:39;20.80;99.90
57552;DHT22;43379;48.160;14.036;2023-07-02T02:14:05;20.80;99.90
57552;DHT22;43379;48.160;14.036;2023-07-02T02:16:31;20.80;99.90
57552;DHT22;43379;48.160;14.036;2023-07-02T02:18:59;20.80;99.90
57552;DHT22;43379;48.160;14.036;2023-07-02T02:21:25;20.70;99.90
57552;DHT22;43379;48.160;14.036;2023-07-02T02:23:50;20.70;99.90
57552;DHT22;43379;48.160;14.036;2023-07-02T02:26:16;20.70;99.90
57552;DHT22;43379;48.160;14.036;2023-07-02T02:28:42;20.70;99.90
57552;DHT22;43379;48.160;14.036;2023-07-02T02:31:08;20.70;99.90
57552;DHT22;43379;48.160;14.036;2023-07-02T02:33:34;20.70;99.90
57552;DHT22;43379;48.160;14.036;2023-07-02T02:36:03;20.70;99.90
57552;DHT22;43379;48.160;14.036;2023-07-02T02:38:29;20.70;99.90
57552;DHT22;43379;48.160;14.036;2023-07-02T02:40:54;20.60;99.90
57552;DHT22;43379;48.160;14.036;2023-07-02T02:43:20;20.60;99.90
57552;DHT22;43379;48.160;14.036;2023-07-02T02:45:46;20.60;99.90
57552;DHT22;43379;48.160;14.036;2023-07-02T02:48:12;20.50;99.90
57552;DHT22;43379;48.160;14.036;2023-07-02T02:50:38;20.50;99.90
57552;DHT22;43379;48.160;14.036;2023-07-02T02:53:08;20.50;99.90
57552;DHT22;43379;48.160;14.036;2023-07-02T02:55:35;20.50;99.90
57552;DHT22;43379;48.160;14.036;2023-07-02T02:58:01;20.50;99.90
57552;DHT22;43379;48.160;14.036;2023-07-02T03:00:26;20.40;99.90
57552;DHT22;43379;48.160;14.036;2023-07-02T03:02:52;20.50;99.90
57552;DHT22;43379;48.160;14.036;2023-07-02T03:05:18;20.40;99.90
57552;DHT22;43379;48.160;14.036;2023-07-02T03:07:43;20.40;99.90
57552;DHT22;43379;48.160;14.036;2023-07-02T03:10:09;20.40;99.90
57552;DHT22;43379;48.160;14.036;2023-07-02T03:12:35;20.40;99.90
57552;DHT22;43379;48.160;14.036;2023-07-02T03:15:00;20.40;99.90
57552;DHT22;43379;48.160;14.036;2023-07-02T03:17:26;20.40;99.90
57552;DHT22;43379;48.160;14.036;2023-07-02T03:19:52;20.30;99.90
57552;DHT22;43379;48.160;14.036;2023-07-02T03:22:18;20.30;99.90
57552;DHT22;43379;48.160;14.036;2023-07-02T03:24:43;20.40;99.90
57552;DHT22;43379;48.160;14.036;2023-07-02T03:27:09;20.40;99.90
57552;DHT22;43379;48.160;14.036;2023-07-02T03:29:35;20.30;99.90
57552;DHT22;43379;48.160;14.036;2023-07-02T03:32:01;20.30;99.90
57552;DHT22;43379;48.160;14.036;2023-07-02T03:34:27;20.30;99.90
57552;DHT22;43379;48.160;14.036;2023-07-02T03:36:53;20.30;99.90
57552;DHT22;43379;48.160;14.036;2023-07-02T03:39:19;20.30;99.90
57552;DHT22;43379;48.160;14.036;2023-07-02T03:41:45;20.30;99.90
57552;DHT22;43379;48.160;14.036;2023-07-02T03:44:10;20.30;99.90
57552;DHT22;43379;48.160;14.036;2023-07-02T03:46:36;20.30;99.90
57552;DHT22;43379;48.160;14.036;2023-07-02T03:49:03;20.30;99.90
57552;DHT22;43379;48.160;14.036;2023-07-02T03:51:29;20.30;99.90
57552;DHT22;43379;48.160;14.036;2023-07-02T03:53:54;20.30;99.90
57552;DHT22;43379;48.160;14.036;2023-07-02T03:56:20;20.30;99.90
57552;DHT22;43379;48.160;14.036;2023-07-02T03:58:46;20.30;99.90
57552;DHT22;43379;48.160;14.036;2023-07-02T04:01:12;20.30;99.90
57552;DHT22;43379;48.160;14.036;2023-07-02T04:03:38;20.30;99.90
57552;DHT22;43379;48.160;14.036;2023-07-02T04:06:04;20.30;99.90
57552;DHT22;43379;48.160;14.036;2023-07-02T04:08:32;20.30;99.90
57552;DHT22;43379;48.160;14.036;2023-07-02T04:10:58;20.30;99.90
57552;DHT22;43379;48.160;14.036;2023-07-02T04:13:24;20.30;99.90
57552;DHT22;43379;48.160;14.036;2023-07-02T04:15:49;20.30;99.90
57552;DHT22;43379;48.160;14.036;2023-07-02T04:18:15;20.40;99.90
57552;DHT22;43379;48.160;14.036;2023-07-02T04:20:41;20.40;99.90
57552;DHT22;43379;48.160;14.036;2023-07-02T04:23:06;20.40;99.90
57552;DHT22;43379;48.160;14.036;2023-07-02T04:25:33;20.40;99.90
57552;DHT22;43379;48.160;14.036;2023-07-02T04:27:58;20.40;99.90
57552;DHT22;43379;48.160;14.036;2023-07-02T04:30:25;20.40;99.90
57552;DHT22;43379;48.160;14.036;2023-07-02T04:32:53;20.40;99.90
57552;DHT22;43379;48.160;14.036;2023-07-02T04:35:19;20.40;99.90
57552;DHT22;43379;48.160;14.036;2023-07-02T04:37:45;20.50;99.90
57552;DHT22;43379;48.160;14.036;2023-07-02T04:40:11;20.50;99.90
57552;DHT22;43379;48.160;14.036;2023-07-02T04:42:42;20.50;99.90
57552;DHT22;43379;48.160;14.036;2023-07-02T04:45:13;20.50;99.90
57552;DHT22;43379;48.160;14.036;2023-07-02T04:47:44;20.60;99.90
57552;DHT22;43379;48.160;14.036;2023-07-02T04:50:10;20.60;99.90
57552;DHT22;43379;48.160;14.036;2023-07-02T04:52:37;20.60;99.90
57552;DHT22;43379;48.160;14.036;2023-07-02T04:55:04;20.60;99.90
57552;DHT22;43379;48.160;14.036;2023-07-02T04:57:30;20.50;99.90
57552;DHT22;43379;48.160;14.036;2023-07-02T04:59:55;20.60;99.90
57552;DHT22;43379;48.160;14.036;2023-07-02T05:02:21;20.70;99.90
57552;DHT22;43379;48.160;14.036;2023-07-02T05:04:47;20.70;99.90
57552;DHT22;43379;48.160;14.036;2023-07-02T05:07:12;20.80;99.90
57552;DHT22;43379;48.160;14.036;2023-07-02T05:09:38;20.90;99.90
57552;DHT22;43379;48.160;14.036;2023-07-02T05:12:04;21.00;99.90
57552;DHT22;43379;48.160;14.036;2023-07-02T05:14:30;21.00;99.90
57552;DHT22;43379;48.160;14.036;2023-07-02T05:16:55;21.10;99.90
57552;DHT22;43379;48.160;14.036;2023-07-02T05:19:21;21.20;99.90
57552;DHT22;43379;48.160;14.036;2023-07-02T05:21:47;21.20;99.90
57552;DHT22;43379;48.160;14.036;2023-07-02T05:24:12;21.30;99.90
57552;DHT22;43379;48.160;14.036;2023-07-02T05:26:38;21.30;99.90
57552;DHT22;43379;48.160;14.036;2023-07-02T05:29:04;21.30;99.90
57552;DHT22;43379;48.160;14.036;2023-07-02T05:31:30;21.30;99.90
57552;DHT22;43379;48.160;14.036;2023-07-02T05:33:56;21.40;99.90
57552;DHT22;43379;48.160;14.036;2023-07-02T05:36:22;21.40;99.90
57552;DHT22;43379;48.160;14.036;2023-07-02T05:38:48;21.50;99.90
57552;DHT22;43379;48.160;14.036;2023-07-02T05:41:22;21.50;99.90
57552;DHT22;43379;48.160;14.036;2023-07-02T05:43:48;21.70;99.90
57552;DHT22;43379;48.160;14.036;2023-07-02T05:46:15;21.90;99.90
57552;DHT22;43379;48.160;14.036;2023-07-02T05:48:41;22.00;99.90
57552;DHT22;43379;48.160;14.036;2023-07-02T05:51:08;22.00;99.90
57552;DHT22;43379;48.160;14.036;2023-07-02T05:53:33;22.00;99.90
57552;DHT22;43379;48.160;14.036;2023-07-02T05:55:59;22.10;99.90
57552;DHT22;43379;48.160;14.036;2023-07-02T05:58:25;22.20;99.90
57552;DHT22;43379;48.160;14.036;2023-07-02T06:00:50;22.30;99.90
57552;DHT22;43379;48.160;14.036;2023-07-02T06:03:17;22.40;99.90
57552;DHT22;43379;48.160;14.036;2023-07-02T06:05:49;22.30;99.90
57552;DHT22;43379;48.160;14.036;2023-07-02T06:08:16;22.30;99.90
57552;DHT22;43379;48.160;14.036;2023-07-02T06:10:43;22.30;99.90
57552;DHT22;43379;48.160;14.036;2023-07-02T06:13:09;22.20;99.90
57552;DHT22;43379;48.160;14.036;2023-07-02T06:15:34;22.10;99.90
57552;DHT22;43379;48.160;14.036;2023-07-02T06:18:00;22.00;99.90
57552;DHT22;43379;48.160;14.036;2023-07-02T06:20:26;22.00;99.90
57552;DHT22;43379;48.160;14.036;2023-07-02T06:22:51;22.00;99.90
57552;DHT22;43379;48.160;14.036;2023-07-02T06:25:17;21.80;99.90
57552;DHT22;43379;48.160;14.036;2023-07-02T06:27:43;21.70;99.90
57552;DHT22;43379;48.160;14.036;2023-07-02T06:30:09;21.60;99.90
57552;DHT22;43379;48.160;14.036;2023-07-02T06:32:34;21.50;99.90
57552;DHT22;43379;48.160;14.036;2023-07-02T06:35:00;21.50;99.90
57552;DHT22;43379;48.160;14.036;2023-07-02T06:37:25;21.50;99.90
57552;DHT22;43379;48.160;14.036;2023-07-02T06:39:51;21.40;99.90
57552;DHT22;43379;48.160;14.036;2023-07-02T06:42:17;21.30;99.90
57552;DHT22;43379;48.160;14.036;2023-07-02T06:44:43;21.40;99.90
57552;DHT22;43379;48.160;14.036;2023-07-02T06:47:08;21.40;99.90
57552;DHT22;43379;48.160;14.036;2023-07-02T06:49:34;21.40;99.90
57552;DHT22;43379;48.160;14.036;2023-07-02T06:52:00;21.40;99.90
57552;DHT22;43379;48.160;14.036;2023-07-02T06:54:26;21.30;99.90
57552;DHT22;43379;48.160;14.036;2023-07-02T06:56:52;21.30;99.90
57552;DHT22;43379;48.160;14.036;2023-07-02T06:59:23;21.30;99.90
57552;DHT22;43379;48.160;14.036;2023-07-02T07:01:50;21.30;99.90
57552;DHT22;43379;48.160;14.036;2023-07-02T07:04:15;21.30;99.90
57552;DHT22;43379;48.160;14.036;2023-07-02T07:06:42;21.30;99.90
57552;DHT22;43379;48.160;14.036;2023-07-02T07:09:08;21.20;99.90
57552;DHT22;43379;48.160;14.036;2023-07-02T07:11:34;21.30;99.90
57552;DHT22;43379;48.160;14.036;2023-07-02T07:13:59;21.30;99.90
57552;DHT22;43379;48.160;14.036;2023-07-02T07:16:25;21.30;99.90
57552;DHT22;43379;48.160;14.036;2023-07-02T07:18:51;21.20;99.90
57552;DHT22;43379;48.160;14.036;2023-07-02T07:21:16;21.20;99.90
57552;DHT22;43379;48.160;14.036;2023-07-02T07:23:42;21.20;99.90
57552;DHT22;43379;48.160;14.036;2023-07-02T07:26:08;21.20;99.90
57552;DHT22;43379;48.160;14.036;2023-07-02T07:28:33;21.40;99.90
57552;DHT22;43379;48.160;14.036;2023-07-02T07:30:59;21.30;99.90
57552;DHT22;43379;48.160;14.036;2023-07-02T07:33:25;21.30;99.90
57552;DHT22;43379;48.160;14.036;2023-07-02T07:35:50;21.30;99.90
57552;DHT22;43379;48.160;14.036;2023-07-02T07:38:16;21.30;99.90
57552;DHT22;43379;48.160;14.036;2023-07-02T07:40:43;21.20;99.90
57552;DHT22;43379;48.160;14.036;2023-07-02T07:43:08;21.20;99.90
57552;DHT22;43379;48.160;14.036;2023-07-02T07:45:34;21.10;99.90
57552;DHT22;43379;48.160;14.036;2023-07-02T07:48:00;21.10;99.90
57552;DHT22;43379;48.160;14.036;2023-07-02T07:50:26;21.10;99.90
57552;DHT22;43379;48.160;14.036;2023-07-02T07:52:52;21.10;99.90
57552;DHT22;43379;48.160;14.036;2023-07-02T07:55:18;21.10;99.90
57552;DHT22;43379;48.160;14.036;2023-07-02T07:57:43;21.10;99.90
57552;DHT22;43379;48.160;14.036;2023-07-02T08:00:09;21.10;99.90
57552;DHT22;43379;48.160;14.036;2023-07-02T08:02:35;21.00;99.90
57552;DHT22;43379;48.160;14.036;2023-07-02T08:05:01;21.00;99.90
57552;DHT22;43379;48.160;14.036;2023-07-02T08:07:28;21.00;99.90
57552;DHT22;43379;48.160;14.036;2023-07-02T08:09:53;21.00;99.90
57552;DHT22;43379;48.160;14.036;2023-07-02T08:12:19;21.20;99.90
57552;DHT22;43379;48.160;14.036;2023-07-02T08:14:45;21.30;99.90
57552;DHT22;43379;48.160;14.036;2023-07-02T08:17:10;21.40;99.90
57552;DHT22;43379;48.160;14.036;2023-07-02T08:19:36;21.60;99.90
57552;DHT22;43379;48.160;14.036;2023-07-02T08:22:02;21.80;99.90
57552;DHT22;43379;48.160;14.036;2023-07-02T08:24:28;21.90;99.90
57552;DHT22;43379;48.160;14.036;2023-07-02T08:26:56;21.90;99.90
57552;DHT22;43379;48.160;14.036;2023-07-02T08:29:21;21.90;99.90
57552;DHT22;43379;48.160;14.036;2023-07-02T08:31:47;21.90;99.90
57552;DHT22;43379;48.160;14.036;2023-07-02T08:34:13;21.80;99.90
57552;DHT22;43379;48.160;14.036;2023-07-02T08:36:38;21.80;99.90
57552;DHT22;43379;48.160;14.036;2023-07-02T08:39:04;21.90;99.90
57552;DHT22;43379;48.160;14.036;2023-07-02T08:41:30;22.00;99.90
57552;DHT22;43379;48.160;14.036;2023-07-02T08:43:59;22.10;99.90
57552;DHT22;43379;48.160;14.036;2023-07-02T08:46:25;22.50;99.90
57552;DHT22;43379;48.160;14.036;2023-07-02T08:48:51;22.90;99.90
57552;DHT22;43379;48.160;14.036;2023-07-02T08:51:17;23.30;99.90
57552;DHT22;43379;48.160;14.036;2023-07-02T08:53:42;23.50;99.90
57552;DHT22;43379;48.160;14.036;2023-07-02T08:56:08;23.60;99.90
57552;DHT22;43379;48.160;14.036;2023-07-02T08:58:34;23.80;99.90
57552;DHT22;43379;48.160;14.036;2023-07-02T09:01:13;24.00;99.60
57552;DHT22;43379;48.160;14.036;2023-07-02T09:03:40;24.10;98.90
57552;DHT22;43379;48.160;14.036;2023-07-02T09:06:09;24.20;98.90
57552;DHT22;43379;48.160;14.036;2023-07-02T09:08:35;24.10;98.60
57552;DHT22;43379;48.160;14.036;2023-07-02T09:11:15;24.20;98.70
57552;DHT22;43379;48.160;14.036;2023-07-02T09:13:49;24.00;98.60
57552;DHT22;43379;48.160;14.036;2023-07-02T09:16:32;24.10;99.00
57552;DHT22;43379;48.160;14.036;2023-07-02T09:19:03;24.10;98.70
57552;DHT22;43379;48.160;14.036;2023-07-02T09:24:28;24.10;98.60
57552;DHT22;43379;48.160;14.036;2023-07-02T09:27:01;23.90;97.70
57552;DHT22;43379;48.160;14.036;2023-07-02T09:32:05;23.60;97.90
57552;DHT22;43379;48.160;14.036;2023-07-02T09:34:35;23.50;97.80
57552;DHT22;43379;48.160;14.036;2023-07-02T09:37:03;23.30;98.00
57552;DHT22;43379;48.160;14.036;2023-07-02T09:39:32;23.20;98.00
57552;DHT22;43379;48.160;14.036;2023-07-02T09:42:03;23.00;98.10
57552;DHT22;43379;48.160;14.036;2023-07-02T09:44:31;22.70;98.30
57552;DHT22;43379;48.160;14.036;2023-07-02T09:47:07;22.50;98.60
57552;DHT22;43379;48.160;14.036;2023-07-02T09:52:07;22.30;99.10
57552;DHT22;43379;48.160;14.036;2023-07-02T09:54:33;22.30;99.30
57552;DHT22;43379;48.160;14.036;2023-07-02T09:57:00;22.20;99.50
57552;DHT22;43379;48.160;14.036;2023-07-02T09:59:26;22.20;99.50
57552;DHT22;43379;48.160;14.036;2023-07-02T10:01:52;22.20;99.30
57552;DHT22;43379;48.160;14.036;2023-07-02T10:04:19;22.30;99.10
57552;DHT22;43379;48.160;14.036;2023-07-02T10:06:56;22.10;99.00
57552;DHT22;43379;48.160;14.036;2023-07-02T10:09:39;22.20;99.10
57552;DHT22;43379;48.160;14.036;2023-07-02T10:12:21;22.10;99.00
57552;DHT22;43379;48.160;14.036;2023-07-02T10:14:49;22.00;99.20
57552;DHT22;43379;48.160;14.036;2023-07-02T10:17:29;22.00;99.10
57552;DHT22;43379;48.160;14.036;2023-07-02T10:19:58;22.10;98.80
57552;DHT22;43379;48.160;14.036;2023-07-02T10:22:24;22.10;98.60
57552;DHT22;43379;48.160;14.036;2023-07-02T10:24:51;22.10;98.70
57552;DHT22;43379;48.160;14.036;2023-07-02T10:27:18;22.10;99.30
57552;DHT22;43379;48.160;14.036;2023-07-02T10:29:50;22.00;99.80
57552;DHT22;43379;48.160;14.036;2023-07-02T10:32:26;21.90;99.90
57552;DHT22;43379;48.160;14.036;2023-07-02T10:34:53;22.00;99.90
57552;DHT22;43379;48.160;14.036;2023-07-02T10:37:19;21.90;99.90
57552;DHT22;43379;48.160;14.036;2023-07-02T10:39:45;21.80;99.90
57552;DHT22;43379;48.160;14.036;2023-07-02T10:42:10;21.70;99.90
57552;DHT22;43379;48.160;14.036;2023-07-02T10:44:56;21.60;99.90
57552;DHT22;43379;48.160;14.036;2023-07-02T10:47:22;21.70;99.90
57552;DHT22;43379;48.160;14.036;2023-07-02T10:49:47;21.60;99.90
57552;DHT22;43379;48.160;14.036;2023-07-02T10:52:13;21.70;99.90
57552;DHT22;43379;48.160;14.036;2023-07-02T10:57:06;21.80;99.90
57552;DHT22;43379;48.160;14.036;2023-07-02T10:59:32;21.90;99.90
57552;DHT22;43379;48.160;14.036;2023-07-02T11:01:58;22.00;99.90
57552;DHT22;43379;48.160;14.036;2023-07-02T11:04:27;22.00;99.90
57552;DHT22;43379;48.160;14.036;2023-07-02T11:06:53;21.90;99.90
57552;DHT22;43379;48.160;14.036;2023-07-02T11:09:19;21.80;99.90
57552;DHT22;43379;48.160;14.036;2023-07-02T11:11:57;21.90;99.90
57552;DHT22;43379;48.160;14.036;2023-07-02T11:14:30;21.90;99.90
57552;DHT22;43379;48.160;14.036;2023-07-02T11:16:57;21.90;99.90
57552;DHT22;43379;48.160;14.036;2023-07-02T11:19:23;21.90;99.90
57552;DHT22;43379;48.160;14.036;2023-07-02T11:21:54;22.00;99.90
57552;DHT22;43379;48.160;14.036;2023-07-02T11:24:35;21.90;99.90
57552;DHT22;43379;48.160;14.036;2023-07-02T11:27:02;21.90;99.90
57552;DHT22;43379;48.160;14.036;2023-07-02T11:29:29;21.80;99.90
57552;DHT22;43379;48.160;14.036;2023-07-02T11:32:08;21.80;99.90
57552;DHT22;43379;48.160;14.036;2023-07-02T11:34:38;21.90;99.90
57552;DHT22;43379;48.160;14.036;2023-07-02T11:37:04;21.90;99.90
57552;DHT22;43379;48.160;14.036;2023-07-02T11:39:31;21.90;99.90
57552;DHT22;43379;48.160;14.036;2023-07-02T11:41:56;21.90;99.90
57552;DHT22;43379;48.160;14.036;2023-07-02T11:44:22;21.90;99.90
57552;DHT22;43379;48.160;14.036;2023-07-02T11:46:48;21.90;99.90
57552;DHT22;43379;48.160;14.036;2023-07-02T11:49:14;21.80;99.90
57552;DHT22;43379;48.160;14.036;2023-07-02T11:51:41;22.00;99.90
57552;DHT22;43379;48.160;14.036;2023-07-02T11:54:07;22.10;99.90
57552;DHT22;43379;48.160;14.036;2023-07-02T11:56:33;22.20;99.90
57552;DHT22;43379;48.160;14.036;2023-07-02T11:58:59;22.30;99.90
57552;DHT22;43379;48.160;14.036;2023-07-02T12:01:25;22.40;99.90
57552;DHT22;43379;48.160;14.036;2023-07-02T12:03:51;22.60;99.90
57552;DHT22;43379;48.160;14.036;2023-07-02T12:06:17;22.60;99.90
57552;DHT22;43379;48.160;14.036;2023-07-02T12:08:43;22.60;99.90
57552;DHT22;43379;48.160;14.036;2023-07-02T12:11:08;22.60;99.90
57552;DHT22;43379;48.160;14.036;2023-07-02T12:13:34;22.60;99.90
57552;DHT22;43379;48.160;14.036;2023-07-02T12:16:00;22.60;99.90
57552;DHT22;43379;48.160;14.036;2023-07-02T12:18:26;22.60;99.60
57552;DHT22;43379;48.160;14.036;2023-07-02T12:20:52;22.50;99.70
57552;DHT22;43379;48.160;14.036;2023-07-02T12:23:17;22.60;99.80
57552;DHT22;43379;48.160;14.036;2023-07-02T12:25:43;22.50;99.90
57552;DHT22;43379;48.160;14.036;2023-07-02T12:28:09;22.50;99.90
57552;DHT22;43379;48.160;14.036;2023-07-02T12:30:34;22.50;99.90
57552;DHT22;43379;48.160;14.036;2023-07-02T12:33:00;22.40;99.90
57552;DHT22;43379;48.160;14.036;2023-07-02T12:35:26;22.40;99.90
57552;DHT22;43379;48.160;14.036;2023-07-02T12:37:52;22.30;99.90
57552;DHT22;43379;48.160;14.036;2023-07-02T12:40:20;22.20;99.90
57552;DHT22;43379;48.160;14.036;2023-07-02T12:42:47;22.20;99.90
57552;DHT22;43379;48.160;14.036;2023-07-02T12:45:13;22.30;99.90
57552;DHT22;43379;48.160;14.036;2023-07-02T12:47:40;22.40;99.90
57552;DHT22;43379;48.160;14.036;2023-07-02T12:50:07;22.50;99.90
57552;DHT22;43379;48.160;14.036;2023-07-02T12:52:33;22.50;99.90
57552;DHT22;43379;48.160;14.036;2023-07-02T12:54:59;22.60;99.90
57552;DHT22;43379;48.160;14.036;2023-07-02T12:57:25;22.60;99.90
57552;DHT22;43379;48.160;14.036;2023-07-02T12:59:53;22.70;99.90
57552;DHT22;43379;48.160;14.036;2023-07-02T13:02:18;22.70;99.90
57552;DHT22;43379;48.160;14.036;2023-07-02T13:04:44;22.70;99.80
57552;DHT22;43379;48.160;14.036;2023-07-02T13:07:10;22.70;99.80
57552;DHT22;43379;48.160;14.036;2023-07-02T13:09:35;22.80;99.90
57552;DHT22;43379;48.160;14.036;2023-07-02T13:12:01;22.90;99.90
57552;DHT22;43379;48.160;14.036;2023-07-02T13:14:27;23.00;99.90
57552;DHT22;43379;48.160;14.036;2023-07-02T13:16:53;23.10;99.90
57552;DHT22;43379;48.160;14.036;2023-07-02T13:19:18;23.10;99.50
57552;DHT22;43379;48.160;14.036;2023-07-02T13:21:44;23.10;98.80
57552;DHT22;43379;48.160;14.036;2023-07-02T13:24:11;23.00;98.80
57552;DHT22;43379;48.160;14.036;2023-07-02T13:26:37;23.00;98.90
57552;DHT22;43379;48.160;14.036;2023-07-02T13:29:03;23.00;98.80
57552;DHT22;43379;48.160;14.036;2023-07-02T13:31:29;23.10;99.20
57552;DHT22;43379;48.160;14.036;2023-07-02T13:33:55;23.30;99.50
57552;DHT22;43379;48.160;14.036;2023-07-02T13:36:20;23.40;99.30
57552;DHT22;43379;48.160;14.036;2023-07-02T13:38:46;23.40;99.00
57552;DHT22;43379;48.160;14.036;2023-07-02T13:41:12;23.50;98.80
57552;DHT22;43379;48.160;14.036;2023-07-02T13:43:37;23.60;99.00
57552;DHT22;43379;48.160;14.036;2023-07-02T13:46:03;23.70;98.60
57552;DHT22;43379;48.160;14.036;2023-07-02T13:48:29;23.80;98.30
57552;DHT22;43379;48.160;14.036;2023-07-02T13:50:55;23.70;98.00
57552;DHT22;43379;48.160;14.036;2023-07-02T13:53:21;23.80;98.30
57552;DHT22;43379;48.160;14.036;2023-07-02T13:55:46;23.80;98.30
57552;DHT22;43379;48.160;14.036;2023-07-02T13:58:12;23.90;98.50
57552;DHT22;43379;48.160;14.036;2023-07-02T14:00:38;24.00;98.70
57552;DHT22;43379;48.160;14.036;2023-07-02T14:03:04;24.00;98.30
57552;DHT22;43379;48.160;14.036;2023-07-02T14:05:30;24.10;97.90
57552;DHT22;43379;48.160;14.036;2023-07-02T14:07:56;24.10;97.90
57552;DHT22;43379;48.160;14.036;2023-07-02T14:10:22;24.20;98.00
57552;DHT22;43379;48.160;14.036;2023-07-02T14:12:48;24.20;97.10
57552;DHT22;43379;48.160;14.036;2023-07-02T14:15:14;24.20;96.90
57552;DHT22;43379;48.160;14.036;2023-07-02T14:17:39;24.10;96.50
57552;DHT22;43379;48.160;14.036;2023-07-02T14:20:07;24.10;96.60
57552;DHT22;43379;48.160;14.036;2023-07-02T14:22:33;24.10;97.00
57552;DHT22;43379;48.160;14.036;2023-07-02T14:24:59;24.00;96.50
57552;DHT22;43379;48.160;14.036;2023-07-02T14:27:24;24.00;96.20
57552;DHT22;43379;48.160;14.036;2023-07-02T14:29:50;24.00;96.70
57552;DHT22;43379;48.160;14.036;2023-07-02T14:32:16;24.00;96.60
57552;DHT22;43379;48.160;14.036;2023-07-02T14:34:41;24.00;96.20
57552;DHT22;43379;48.160;14.036;2023-07-02T14:37:07;24.00;96.20
57552;DHT22;43379;48.160;14.036;2023-07-02T14:39:33;24.00;96.20
57552;DHT22;43379;48.160;14.036;2023-07-02T14:41:59;24.10;96.30
57552;DHT22;43379;48.160;14.036;2023-07-02T14:44:25;24.20;96.50
57552;DHT22;43379;48.160;14.036;2023-07-02T14:46:51;24.20;96.00
57552;DHT22;43379;48.160;14.036;2023-07-02T14:49:16;24.20;95.90
57552;DHT22;43379;48.160;14.036;2023-07-02T14:51:42;24.20;95.60
57552;DHT22;43379;48.160;14.036;2023-07-02T14:54:09;24.20;95.60
57552;DHT22;43379;48.160;14.036;2023-07-02T14:56:34;24.30;95.90
57552;DHT22;43379;48.160;14.036;2023-07-02T14:59:03;24.40;95.50
57552;DHT22;43379;48.160;14.036;2023-07-02T15:01:29;24.40;95.40
57552;DHT22;43379;48.160;14.036;2023-07-02T15:03:55;24.50;95.60
57552;DHT22;43379;48.160;14.036;2023-07-02T15:06:21;24.60;95.50
57552;DHT22;43379;48.160;14.036;2023-07-02T15:08:46;24.60;95.10
57552;DHT22;43379;48.160;14.036;2023-07-02T15:11:13;24.70;95.60
57552;DHT22;43379;48.160;14.036;2023-07-02T15:13:40;24.80;95.20
57552;DHT22;43379;48.160;14.036;2023-07-02T15:16:07;24.90;95.00
57552;DHT22;43379;48.160;14.036;2023-07-02T15:18:33;24.90;93.90
57552;DHT22;43379;48.160;14.036;2023-07-02T15:20:59;25.00;94.00
57552;DHT22;43379;48.160;14.036;2023-07-02T15:23:26;24.90;94.00